sensor_id;sensor_type;location;lat;lon;timestamp;P1;durP1;ratioP1;P2;durP2;ratioP2
75716;SDS011;64333;50.138;14.332;2022-11-13T00:02:09;78.32;;;17.02;;
75716;SDS011;64333;50.138;14.332;2022-11-13T00:04:34;70.32;;;18.73;;
75716;SDS011;64333;50.138;14.332;2022-11-13T00:06:59;96.50;;;21.63;;
75716;SDS011;64333;50.138;14.332;2022-11-13T00:09:25;65.63;;;16.23;;
75716;SDS011;64333;50.138;14.332;2022-11-13T00:11:50;45.90;;;14.80;;
75716;SDS011;64333;50.138;14.332;2022-11-13T00:14:15;82.82;;;16.90;;
75716;SDS011;64333;50.138;14.332;2022-11-13T00:16:41;71.32;;;18.88;;
75716;SDS011;64333;50.138;14.332;2022-11-13T00:19:06;95.15;;;18.65;;
75716;SDS011;64333;50.138;14.332;2022-11-13T00:21:31;132.85;;;19.42;;
75716;SDS011;64333;50.138;14.332;2022-11-13T00:23:57;118.45;;;23.30;;
75716;SDS011;64333;50.138;14.332;2022-11-13T00:26:23;82.13;;;20.10;;
75716;SDS011;64333;50.138;14.332;2022-11-13T00:28:52;72.85;;;16.85;;
75716;SDS011;64333;50.138;14.332;2022-11-13T00:31:18;78.38;;;19.45;;
75716;SDS011;64333;50.138;14.332;2022-11-13T00:33:44;66.13;;;16.27;;
75716;SDS011;64333;50.138;14.332;2022-11-13T00:36:11;56.10;;;15.05;;
75716;SDS011;64333;50.138;14.332;2022-11-13T00:38:39;92.53;;;17.67;;
75716;SDS011;64333;50.138;14.332;2022-11-13T00:41:04;114.20;;;20.10;;
75716;SDS011;64333;50.138;14.332;2022-11-13T00:43:30;59.60;;;16.13;;
75716;SDS011;64333;50.138;14.332;2022-11-13T00:45:55;124.60;;;23.02;;
75716;SDS011;64333;50.138;14.332;2022-11-13T00:48:20;133.10;;;23.42;;
75716;SDS011;64333;50.138;14.332;2022-11-13T00:50:46;89.97;;;22.67;;
75716;SDS011;64333;50.138;14.332;2022-11-13T00:53:12;66.25;;;15.18;;
75716;SDS011;64333;50.138;14.332;2022-11-13T00:55:37;101.32;;;20.40;;
75716;SDS011;64333;50.138;14.332;2022-11-13T00:58:03;56.22;;;13.18;;
75716;SDS011;64333;50.138;14.332;2022-11-13T01:00:29;152.60;;;21.17;;
75716;SDS011;64333;50.138;14.332;2022-11-13T01:02:58;103.35;;;18.70;;
75716;SDS011;64333;50.138;14.332;2022-11-13T01:05:24;75.00;;;17.30;;
75716;SDS011;64333;50.138;14.332;2022-11-13T01:07:50;91.57;;;17.15;;
75716;SDS011;64333;50.138;14.332;2022-11-13T01:10:15;54.55;;;15.05;;
75716;SDS011;64333;50.138;14.332;2022-11-13T01:12:41;72.95;;;16.55;;
75716;SDS011;64333;50.138;14.332;2022-11-13T01:15:06;93.78;;;19.65;;
75716;SDS011;64333;50.138;14.332;2022-11-13T01:17:32;78.75;;;19.90;;
75716;SDS011;64333;50.138;14.332;2022-11-13T01:19:57;63.58;;;14.65;;
75716;SDS011;64333;50.138;14.332;2022-11-13T01:22:23;73.63;;;16.95;;
75716;SDS011;64333;50.138;14.332;2022-11-13T01:24:48;85.97;;;16.52;;
75716;SDS011;64333;50.138;14.332;2022-11-13T01:27:13;61.28;;;15.05;;
75716;SDS011;64333;50.138;14.332;2022-11-13T01:29:40;71.63;;;15.35;;
75716;SDS011;64333;50.138;14.332;2022-11-13T01:32:05;104.00;;;20.63;;
75716;SDS011;64333;50.138;14.332;2022-11-13T01:34:31;87.10;;;17.17;;
75716;SDS011;64333;50.138;14.332;2022-11-13T01:36:56;88.70;;;17.92;;
75716;SDS011;64333;50.138;14.332;2022-11-13T01:39:21;105.90;;;21.30;;
75716;SDS011;64333;50.138;14.332;2022-11-13T01:41:47;82.53;;;17.38;;
75716;SDS011;64333;50.138;14.332;2022-11-13T01:44:13;32.30;;;11.65;;
75716;SDS011;64333;50.138;14.332;2022-11-13T01:46:45;60.03;;;14.45;;
75716;SDS011;64333;50.138;14.332;2022-11-13T01:49:18;70.55;;;14.02;;
75716;SDS011;64333;50.138;14.332;2022-11-13T01:51:52;59.83;;;14.27;;
75716;SDS011;64333;50.138;14.332;2022-11-13T01:54:22;53.03;;;14.07;;
75716;SDS011;64333;50.138;14.332;2022-11-13T01:56:51;44.40;;;12.30;;
75716;SDS011;64333;50.138;14.332;2022-11-13T01:59:19;135.85;;;20.10;;
75716;SDS011;64333;50.138;14.332;2022-11-13T02:01:48;98.50;;;19.13;;
75716;SDS011;64333;50.138;14.332;2022-11-13T02:04:14;133.55;;;20.67;;
75716;SDS011;64333;50.138;14.332;2022-11-13T02:06:41;112.88;;;19.70;;
75716;SDS011;64333;50.138;14.332;2022-11-13T02:09:09;85.97;;;17.80;;
75716;SDS011;64333;50.138;14.332;2022-11-13T02:11:38;93.55;;;17.65;;
75716;SDS011;64333;50.138;14.332;2022-11-13T02:14:04;103.38;;;19.85;;
75716;SDS011;64333;50.138;14.332;2022-11-13T02:16:31;71.70;;;14.82;;
75716;SDS011;64333;50.138;14.332;2022-11-13T02:18:59;91.15;;;15.95;;
75716;SDS011;64333;50.138;14.332;2022-11-13T02:22:13;45.15;;;11.98;;
75716;SDS011;64333;50.138;14.332;2022-11-13T02:24:41;36.88;;;9.90;;
75716;SDS011;64333;50.138;14.332;2022-11-13T02:27:16;91.47;;;14.20;;
75716;SDS011;64333;50.138;14.332;2022-11-13T02:29:43;31.30;;;9.85;;
75716;SDS011;64333;50.138;14.332;2022-11-13T02:32:08;59.30;;;13.13;;
75716;SDS011;64333;50.138;14.332;2022-11-13T02:34:33;50.83;;;12.02;;
75716;SDS011;64333;50.138;14.332;2022-11-13T02:36:58;36.92;;;9.48;;
75716;SDS011;64333;50.138;14.332;2022-11-13T02:39:24;61.35;;;13.23;;
75716;SDS011;64333;50.138;14.332;2022-11-13T02:41:49;43.95;;;10.48;;
75716;SDS011;64333;50.138;14.332;2022-11-13T02:44:15;28.05;;;9.23;;
75716;SDS011;64333;50.138;14.332;2022-11-13T02:46:40;18.50;;;7.85;;
75716;SDS011;64333;50.138;14.332;2022-11-13T02:49:05;49.50;;;11.45;;
75716;SDS011;64333;50.138;14.332;2022-11-13T02:51:31;28.77;;;9.75;;
75716;SDS011;64333;50.138;14.332;2022-11-13T02:53:57;28.98;;;9.98;;
75716;SDS011;64333;50.138;14.332;2022-11-13T02:56:22;50.35;;;12.60;;
75716;SDS011;64333;50.138;14.332;2022-11-13T02:58:47;70.80;;;14.48;;
75716;SDS011;64333;50.138;14.332;2022-11-13T03:01:13;83.53;;;13.80;;
75716;SDS011;64333;50.138;14.332;2022-11-13T03:03:38;46.85;;;10.80;;
75716;SDS011;64333;50.138;14.332;2022-11-13T03:06:04;68.35;;;12.77;;
75716;SDS011;64333;50.138;14.332;2022-11-13T03:08:29;61.85;;;14.00;;
75716;SDS011;64333;50.138;14.332;2022-11-13T03:10:56;67.35;;;14.85;;
75716;SDS011;64333;50.138;14.332;2022-11-13T03:13:21;28.88;;;9.93;;
75716;SDS011;64333;50.138;14.332;2022-11-13T03:15:46;64.40;;;12.40;;
75716;SDS011;64333;50.138;14.332;2022-11-13T03:18:12;77.47;;;14.20;;
75716;SDS011;64333;50.138;14.332;2022-11-13T03:20:38;64.32;;;12.25;;
75716;SDS011;64333;50.138;14.332;2022-11-13T03:23:05;39.67;;;10.30;;
75716;SDS011;64333;50.138;14.332;2022-11-13T03:25:31;67.65;;;13.52;;
75716;SDS011;64333;50.138;14.332;2022-11-13T03:27:58;29.08;;;8.95;;
75716;SDS011;64333;50.138;14.332;2022-11-13T03:30:23;74.80;;;12.88;;
75716;SDS011;64333;50.138;14.332;2022-11-13T03:32:52;57.97;;;13.45;;
75716;SDS011;64333;50.138;14.332;2022-11-13T03:35:21;72.95;;;14.95;;
75716;SDS011;64333;50.138;14.332;2022-11-13T03:37:50;56.65;;;12.90;;
75716;SDS011;64333;50.138;14.332;2022-11-13T03:40:15;70.53;;;14.90;;
75716;SDS011;64333;50.138;14.332;2022-11-13T03:42:41;70.03;;;12.82;;
75716;SDS011;64333;50.138;14.332;2022-11-13T03:45:07;54.42;;;12.13;;
75716;SDS011;64333;50.138;14.332;2022-11-13T03:47:35;79.00;;;14.88;;
75716;SDS011;64333;50.138;14.332;2022-11-13T03:50:00;41.05;;;11.15;;
75716;SDS011;64333;50.138;14.332;2022-11-13T03:52:26;88.00;;;15.02;;
75716;SDS011;64333;50.138;14.332;2022-11-13T03:54:51;40.58;;;11.88;;
75716;SDS011;64333;50.138;14.332;2022-11-13T03:57:16;59.53;;;12.88;;
75716;SDS011;64333;50.138;14.332;2022-11-13T03:59:42;49.50;;;15.05;;
75716;SDS011;64333;50.138;14.332;2022-11-13T04:02:07;60.00;;;13.70;;
75716;SDS011;64333;50.138;14.332;2022-11-13T04:04:32;41.28;;;12.52;;
75716;SDS011;64333;50.138;14.332;2022-11-13T04:06:58;55.33;;;13.18;;
75716;SDS011;64333;50.138;14.332;2022-11-13T04:09:23;56.65;;;14.98;;
75716;SDS011;64333;50.138;14.332;2022-11-13T04:11:49;46.17;;;11.38;;
75716;SDS011;64333;50.138;14.332;2022-11-13T04:14:14;35.95;;;11.77;;
75716;SDS011;64333;50.138;14.332;2022-11-13T04:16:39;68.70;;;16.88;;
75716;SDS011;64333;50.138;14.332;2022-11-13T04:19:05;49.13;;;12.23;;
75716;SDS011;64333;50.138;14.332;2022-11-13T04:21:30;41.67;;;12.02;;
75716;SDS011;64333;50.138;14.332;2022-11-13T04:23:55;52.47;;;12.63;;
75716;SDS011;64333;50.138;14.332;2022-11-13T04:26:21;42.15;;;12.07;;
75716;SDS011;64333;50.138;14.332;2022-11-13T04:28:46;64.20;;;14.90;;
75716;SDS011;64333;50.138;14.332;2022-11-13T04:31:11;52.63;;;13.52;;
75716;SDS011;64333;50.138;14.332;2022-11-13T04:33:37;40.47;;;12.93;;
75716;SDS011;64333;50.138;14.332;2022-11-13T04:36:02;43.58;;;12.88;;
75716;SDS011;64333;50.138;14.332;2022-11-13T04:38:28;45.38;;;13.43;;
75716;SDS011;64333;50.138;14.332;2022-11-13T04:40:53;44.38;;;12.07;;
75716;SDS011;64333;50.138;14.332;2022-11-13T04:43:39;49.95;;;12.63;;
75716;SDS011;64333;50.138;14.332;2022-11-13T04:46:04;46.70;;;11.65;;
75716;SDS011;64333;50.138;14.332;2022-11-13T04:48:29;65.45;;;15.05;;
75716;SDS011;64333;50.138;14.332;2022-11-13T04:50:55;69.88;;;15.63;;
75716;SDS011;64333;50.138;14.332;2022-11-13T04:53:20;63.20;;;14.80;;
75716;SDS011;64333;50.138;14.332;2022-11-13T04:55:46;73.97;;;17.38;;
75716;SDS011;64333;50.138;14.332;2022-11-13T04:58:11;54.65;;;16.05;;
75716;SDS011;64333;50.138;14.332;2022-11-13T05:00:36;53.92;;;16.23;;
75716;SDS011;64333;50.138;14.332;2022-11-13T05:03:02;48.08;;;13.27;;
75716;SDS011;64333;50.138;14.332;2022-11-13T05:05:27;42.83;;;13.20;;
75716;SDS011;64333;50.138;14.332;2022-11-13T05:07:53;51.47;;;14.45;;
75716;SDS011;64333;50.138;14.332;2022-11-13T05:10:19;33.92;;;12.05;;
75716;SDS011;64333;50.138;14.332;2022-11-13T05:12:44;49.85;;;13.77;;
75716;SDS011;64333;50.138;14.332;2022-11-13T05:15:09;51.75;;;15.52;;
75716;SDS011;64333;50.138;14.332;2022-11-13T05:17:35;28.77;;;11.07;;
75716;SDS011;64333;50.138;14.332;2022-11-13T05:20:00;39.28;;;14.07;;
75716;SDS011;64333;50.138;14.332;2022-11-13T05:22:25;36.17;;;13.00;;
75716;SDS011;64333;50.138;14.332;2022-11-13T05:24:51;39.47;;;12.90;;
75716;SDS011;64333;50.138;14.332;2022-11-13T05:27:16;46.25;;;13.35;;
75716;SDS011;64333;50.138;14.332;2022-11-13T05:29:41;46.20;;;13.75;;
75716;SDS011;64333;50.138;14.332;2022-11-13T05:32:07;45.95;;;13.35;;
75716;SDS011;64333;50.138;14.332;2022-11-13T05:34:32;37.80;;;13.70;;
75716;SDS011;64333;50.138;14.332;2022-11-13T05:36:57;48.05;;;13.10;;
75716;SDS011;64333;50.138;14.332;2022-11-13T05:39:23;57.88;;;12.75;;
75716;SDS011;64333;50.138;14.332;2022-11-13T05:41:48;49.42;;;14.25;;
75716;SDS011;64333;50.138;14.332;2022-11-13T05:44:13;59.40;;;15.40;;
75716;SDS011;64333;50.138;14.332;2022-11-13T05:46:39;54.60;;;15.15;;
75716;SDS011;64333;50.138;14.332;2022-11-13T05:49:04;59.13;;;13.13;;
75716;SDS011;64333;50.138;14.332;2022-11-13T05:51:31;77.60;;;18.73;;
75716;SDS011;64333;50.138;14.332;2022-11-13T05:53:57;54.65;;;16.25;;
75716;SDS011;64333;50.138;14.332;2022-11-13T05:58:49;80.40;;;18.67;;
75716;SDS011;64333;50.138;14.332;2022-11-13T06:01:18;54.10;;;18.13;;
75716;SDS011;64333;50.138;14.332;2022-11-13T06:03:46;53.80;;;14.98;;
75716;SDS011;64333;50.138;14.332;2022-11-13T06:06:13;37.88;;;16.10;;
75716;SDS011;64333;50.138;14.332;2022-11-13T06:08:41;40.50;;;14.48;;
75716;SDS011;64333;50.138;14.332;2022-11-13T06:11:08;29.02;;;12.73;;
75716;SDS011;64333;50.138;14.332;2022-11-13T06:13:35;43.38;;;14.10;;
75716;SDS011;64333;50.138;14.332;2022-11-13T06:16:03;33.05;;;14.85;;
75716;SDS011;64333;50.138;14.332;2022-11-13T06:18:33;34.25;;;13.43;;
75716;SDS011;64333;50.138;14.332;2022-11-13T06:21:00;29.15;;;13.10;;
75716;SDS011;64333;50.138;14.332;2022-11-13T06:23:26;40.03;;;14.52;;
75716;SDS011;64333;50.138;14.332;2022-11-13T06:25:51;40.80;;;14.05;;
75716;SDS011;64333;50.138;14.332;2022-11-13T06:28:17;37.08;;;15.27;;
75716;SDS011;64333;50.138;14.332;2022-11-13T06:30:42;33.80;;;13.20;;
75716;SDS011;64333;50.138;14.332;2022-11-13T06:33:08;30.38;;;13.15;;
75716;SDS011;64333;50.138;14.332;2022-11-13T06:35:33;49.70;;;15.38;;
75716;SDS011;64333;50.138;14.332;2022-11-13T06:37:59;52.75;;;15.57;;
75716;SDS011;64333;50.138;14.332;2022-11-13T06:40:25;55.97;;;15.80;;
75716;SDS011;64333;50.138;14.332;2022-11-13T06:42:51;37.53;;;13.02;;
75716;SDS011;64333;50.138;14.332;2022-11-13T06:45:17;55.42;;;15.75;;
75716;SDS011;64333;50.138;14.332;2022-11-13T06:47:42;43.30;;;13.98;;
75716;SDS011;64333;50.138;14.332;2022-11-13T06:50:07;63.88;;;15.80;;
75716;SDS011;64333;50.138;14.332;2022-11-13T06:52:33;42.75;;;12.65;;
75716;SDS011;64333;50.138;14.332;2022-11-13T06:54:59;35.88;;;13.27;;
75716;SDS011;64333;50.138;14.332;2022-11-13T06:57:25;45.50;;;14.23;;
75716;SDS011;64333;50.138;14.332;2022-11-13T06:59:51;65.25;;;16.75;;
75716;SDS011;64333;50.138;14.332;2022-11-13T07:02:16;39.40;;;14.95;;
75716;SDS011;64333;50.138;14.332;2022-11-13T07:04:41;31.70;;;12.52;;
75716;SDS011;64333;50.138;14.332;2022-11-13T07:07:07;28.92;;;13.25;;
75716;SDS011;64333;50.138;14.332;2022-11-13T07:09:32;55.50;;;16.20;;
75716;SDS011;64333;50.138;14.332;2022-11-13T07:11:57;39.17;;;13.68;;
75716;SDS011;64333;50.138;14.332;2022-11-13T07:14:23;37.55;;;13.57;;
75716;SDS011;64333;50.138;14.332;2022-11-13T07:16:48;61.30;;;16.55;;
75716;SDS011;64333;50.138;14.332;2022-11-13T07:19:13;52.60;;;14.30;;
75716;SDS011;64333;50.138;14.332;2022-11-13T07:21:39;47.63;;;15.60;;
75716;SDS011;64333;50.138;14.332;2022-11-13T07:24:04;48.97;;;13.88;;
75716;SDS011;64333;50.138;14.332;2022-11-13T07:26:31;73.28;;;17.15;;
75716;SDS011;64333;50.138;14.332;2022-11-13T07:28:56;45.72;;;14.57;;
75716;SDS011;64333;50.138;14.332;2022-11-13T07:31:22;51.47;;;14.15;;
75716;SDS011;64333;50.138;14.332;2022-11-13T07:33:48;65.80;;;15.77;;
75716;SDS011;64333;50.138;14.332;2022-11-13T07:36:14;40.78;;;13.93;;
75716;SDS011;64333;50.138;14.332;2022-11-13T07:38:39;60.72;;;14.75;;
75716;SDS011;64333;50.138;14.332;2022-11-13T07:41:05;48.38;;;14.10;;
75716;SDS011;64333;50.138;14.332;2022-11-13T07:43:30;44.22;;;14.10;;
75716;SDS011;64333;50.138;14.332;2022-11-13T07:45:56;43.00;;;11.63;;
75716;SDS011;64333;50.138;14.332;2022-11-13T07:48:22;53.40;;;12.80;;
75716;SDS011;64333;50.138;14.332;2022-11-13T07:50:48;41.47;;;15.52;;
75716;SDS011;64333;50.138;14.332;2022-11-13T07:53:14;64.93;;;14.60;;
75716;SDS011;64333;50.138;14.332;2022-11-13T07:55:40;50.05;;;14.27;;
75716;SDS011;64333;50.138;14.332;2022-11-13T07:58:06;60.42;;;15.00;;
75716;SDS011;64333;50.138;14.332;2022-11-13T08:00:32;54.53;;;15.45;;
75716;SDS011;64333;50.138;14.332;2022-11-13T08:03:10;82.03;;;19.02;;
75716;SDS011;64333;50.138;14.332;2022-11-13T08:05:36;66.38;;;17.58;;
75716;SDS011;64333;50.138;14.332;2022-11-13T08:08:02;53.55;;;15.52;;
75716;SDS011;64333;50.138;14.332;2022-11-13T08:10:28;39.35;;;14.57;;
75716;SDS011;64333;50.138;14.332;2022-11-13T08:12:57;44.20;;;14.30;;
75716;SDS011;64333;50.138;14.332;2022-11-13T08:15:24;46.83;;;14.65;;
75716;SDS011;64333;50.138;14.332;2022-11-13T08:17:54;42.90;;;15.23;;
75716;SDS011;64333;50.138;14.332;2022-11-13T08:20:20;50.65;;;14.00;;
75716;SDS011;64333;50.138;14.332;2022-11-13T08:22:46;40.00;;;12.88;;
75716;SDS011;64333;50.138;14.332;2022-11-13T08:25:11;54.60;;;16.05;;
75716;SDS011;64333;50.138;14.332;2022-11-13T08:27:37;36.80;;;14.15;;
75716;SDS011;64333;50.138;14.332;2022-11-13T08:30:02;50.63;;;18.23;;
75716;SDS011;64333;50.138;14.332;2022-11-13T08:32:28;62.83;;;17.40;;
75716;SDS011;64333;50.138;14.332;2022-11-13T08:34:54;39.92;;;14.25;;
75716;SDS011;64333;50.138;14.332;2022-11-13T08:37:19;47.47;;;16.52;;
75716;SDS011;64333;50.138;14.332;2022-11-13T08:39:44;39.03;;;15.15;;
75716;SDS011;64333;50.138;14.332;2022-11-13T08:42:10;34.38;;;13.82;;
75716;SDS011;64333;50.138;14.332;2022-11-13T08:44:35;35.10;;;14.35;;
75716;SDS011;64333;50.138;14.332;2022-11-13T08:47:00;36.08;;;14.73;;
75716;SDS011;64333;50.138;14.332;2022-11-13T08:49:26;36.08;;;15.27;;
75716;SDS011;64333;50.138;14.332;2022-11-13T08:51:51;35.50;;;14.02;;
75716;SDS011;64333;50.138;14.332;2022-11-13T08:54:17;36.83;;;14.00;;
75716;SDS011;64333;50.138;14.332;2022-11-13T08:56:42;38.40;;;14.57;;
75716;SDS011;64333;50.138;14.332;2022-11-13T08:59:08;53.08;;;17.20;;
75716;SDS011;64333;50.138;14.332;2022-11-13T09:01:34;41.00;;;14.50;;
75716;SDS011;64333;50.138;14.332;2022-11-13T09:03:59;36.55;;;17.38;;
75716;SDS011;64333;50.138;14.332;2022-11-13T09:06:24;43.00;;;15.32;;
75716;SDS011;64333;50.138;14.332;2022-11-13T09:08:50;37.28;;;15.50;;
75716;SDS011;64333;50.138;14.332;2022-11-13T09:11:15;40.83;;;17.08;;
75716;SDS011;64333;50.138;14.332;2022-11-13T09:13:41;45.40;;;15.55;;
75716;SDS011;64333;50.138;14.332;2022-11-13T09:16:06;41.33;;;14.77;;
75716;SDS011;64333;50.138;14.332;2022-11-13T09:18:32;37.17;;;13.73;;
75716;SDS011;64333;50.138;14.332;2022-11-13T09:21:00;64.07;;;17.65;;
75716;SDS011;64333;50.138;14.332;2022-11-13T09:23:29;31.35;;;13.40;;
75716;SDS011;64333;50.138;14.332;2022-11-13T09:25:55;49.05;;;15.43;;
75716;SDS011;64333;50.138;14.332;2022-11-13T09:28:20;45.45;;;15.93;;
75716;SDS011;64333;50.138;14.332;2022-11-13T09:30:46;44.20;;;16.08;;
75716;SDS011;64333;50.138;14.332;2022-11-13T09:33:11;44.92;;;17.00;;
75716;SDS011;64333;50.138;14.332;2022-11-13T09:35:40;39.25;;;13.20;;
75716;SDS011;64333;50.138;14.332;2022-11-13T09:38:07;42.20;;;15.70;;
75716;SDS011;64333;50.138;14.332;2022-11-13T09:40:52;46.63;;;16.95;;
75716;SDS011;64333;50.138;14.332;2022-11-13T09:45:58;57.10;;;17.75;;
75716;SDS011;64333;50.138;14.332;2022-11-13T09:48:29;37.53;;;15.25;;
75716;SDS011;64333;50.138;14.332;2022-11-13T09:50:59;37.17;;;13.20;;
75716;SDS011;64333;50.138;14.332;2022-11-13T09:53:31;47.40;;;15.57;;
75716;SDS011;64333;50.138;14.332;2022-11-13T09:56:10;54.70;;;17.33;;
75716;SDS011;64333;50.138;14.332;2022-11-13T09:58:48;38.20;;;15.38;;
75716;SDS011;64333;50.138;14.332;2022-11-13T10:01:23;41.92;;;15.38;;
75716;SDS011;64333;50.138;14.332;2022-11-13T10:03:56;49.35;;;16.63;;
75716;SDS011;64333;50.138;14.332;2022-11-13T10:09:00;32.30;;;12.68;;
75716;SDS011;64333;50.138;14.332;2022-11-13T10:11:50;46.35;;;17.55;;
75716;SDS011;64333;50.138;14.332;2022-11-13T10:14:21;39.13;;;16.00;;
75716;SDS011;64333;50.138;14.332;2022-11-13T10:16:52;37.50;;;15.25;;
75716;SDS011;64333;50.138;14.332;2022-11-13T10:21:58;41.67;;;15.43;;
75716;SDS011;64333;50.138;14.332;2022-11-13T10:24:28;42.28;;;18.08;;
75716;SDS011;64333;50.138;14.332;2022-11-13T10:27:04;41.65;;;15.98;;
75716;SDS011;64333;50.138;14.332;2022-11-13T10:29:33;50.25;;;17.52;;
75716;SDS011;64333;50.138;14.332;2022-11-13T10:32:00;35.50;;;14.63;;
75716;SDS011;64333;50.138;14.332;2022-11-13T10:40:23;42.47;;;17.20;;
75716;SDS011;64333;50.138;14.332;2022-11-13T10:43:02;39.33;;;17.15;;
75716;SDS011;64333;50.138;14.332;2022-11-13T10:45:29;43.38;;;18.00;;
75716;SDS011;64333;50.138;14.332;2022-11-13T10:47:54;44.63;;;17.90;;
75716;SDS011;64333;50.138;14.332;2022-11-13T10:50:21;33.97;;;17.58;;
75716;SDS011;64333;50.138;14.332;2022-11-13T10:52:49;38.92;;;17.00;;
75716;SDS011;64333;50.138;14.332;2022-11-13T10:58:01;34.75;;;15.50;;
75716;SDS011;64333;50.138;14.332;2022-11-13T11:00:36;38.17;;;16.52;;
75716;SDS011;64333;50.138;14.332;2022-11-13T11:03:08;32.47;;;14.88;;
75716;SDS011;64333;50.138;14.332;2022-11-13T11:05:38;38.28;;;16.20;;
75716;SDS011;64333;50.138;14.332;2022-11-13T11:08:06;37.25;;;18.15;;
75716;SDS011;64333;50.138;14.332;2022-11-13T11:10:34;44.85;;;18.13;;
75716;SDS011;64333;50.138;14.332;2022-11-13T11:13:05;41.95;;;18.60;;
75716;SDS011;64333;50.138;14.332;2022-11-13T11:15:42;40.38;;;16.73;;
75716;SDS011;64333;50.138;14.332;2022-11-13T11:20:58;39.95;;;18.98;;
75716;SDS011;64333;50.138;14.332;2022-11-13T11:26:12;43.28;;;18.20;;
75716;SDS011;64333;50.138;14.332;2022-11-13T11:29:04;44.78;;;20.38;;
75716;SDS011;64333;50.138;14.332;2022-11-13T11:31:34;44.00;;;18.60;;
75716;SDS011;64333;50.138;14.332;2022-11-13T11:34:21;49.55;;;19.33;;
75716;SDS011;64333;50.138;14.332;2022-11-13T11:37:12;49.40;;;18.98;;
75716;SDS011;64333;50.138;14.332;2022-11-13T11:39:47;50.30;;;18.63;;
75716;SDS011;64333;50.138;14.332;2022-11-13T11:48:01;47.38;;;19.73;;
75716;SDS011;64333;50.138;14.332;2022-11-13T11:50:44;50.28;;;19.20;;
75716;SDS011;64333;50.138;14.332;2022-11-13T11:53:18;44.03;;;20.00;;
75716;SDS011;64333;50.138;14.332;2022-11-13T12:01:36;47.55;;;18.17;;
75716;SDS011;64333;50.138;14.332;2022-11-13T12:09:35;45.45;;;18.67;;
75716;SDS011;64333;50.138;14.332;2022-11-13T12:12:17;45.90;;;18.67;;
75716;SDS011;64333;50.138;14.332;2022-11-13T12:26:20;88.18;;;24.20;;
75716;SDS011;64333;50.138;14.332;2022-11-13T12:32:14;79.13;;;24.25;;
75716;SDS011;64333;50.138;14.332;2022-11-13T12:34:48;70.78;;;24.15;;
75716;SDS011;64333;50.138;14.332;2022-11-13T12:37:19;84.47;;;24.67;;
75716;SDS011;64333;50.138;14.332;2022-11-13T12:40:01;72.93;;;22.60;;
75716;SDS011;64333;50.138;14.332;2022-11-13T12:45:33;115.90;;;26.52;;
75716;SDS011;64333;50.138;14.332;2022-11-13T12:50:38;110.63;;;27.90;;
75716;SDS011;64333;50.138;14.332;2022-11-13T12:53:22;60.10;;;19.05;;
75716;SDS011;64333;50.138;14.332;2022-11-13T12:55:55;99.30;;;24.27;;
75716;SDS011;64333;50.138;14.332;2022-11-13T12:58:28;106.30;;;28.08;;
75716;SDS011;64333;50.138;14.332;2022-11-13T13:00:57;80.13;;;24.55;;
75716;SDS011;64333;50.138;14.332;2022-11-13T13:11:21;72.80;;;23.13;;
75716;SDS011;64333;50.138;14.332;2022-11-13T13:13:54;71.32;;;25.15;;
75716;SDS011;64333;50.138;14.332;2022-11-13T13:16:33;78.65;;;27.10;;
75716;SDS011;64333;50.138;14.332;2022-11-13T13:19:19;72.32;;;26.92;;
75716;SDS011;64333;50.138;14.332;2022-11-13T13:21:54;72.20;;;26.52;;
75716;SDS011;64333;50.138;14.332;2022-11-13T13:24:27;75.72;;;27.20;;
75716;SDS011;64333;50.138;14.332;2022-11-13T13:26:58;75.03;;;28.65;;
75716;SDS011;64333;50.138;14.332;2022-11-13T13:29:24;66.28;;;25.63;;
75716;SDS011;64333;50.138;14.332;2022-11-13T13:32:10;69.53;;;27.08;;
75716;SDS011;64333;50.138;14.332;2022-11-13T13:46:12;86.40;;;26.98;;
75716;SDS011;64333;50.138;14.332;2022-11-13T13:48:46;101.43;;;30.17;;
75716;SDS011;64333;50.138;14.332;2022-11-13T13:54:04;87.60;;;30.83;;
75716;SDS011;64333;50.138;14.332;2022-11-13T13:56:32;108.57;;;30.95;;
75716;SDS011;64333;50.138;14.332;2022-11-13T13:59:03;91.13;;;28.85;;
75716;SDS011;64333;50.138;14.332;2022-11-13T14:01:30;96.15;;;31.67;;
75716;SDS011;64333;50.138;14.332;2022-11-13T14:04:04;85.80;;;30.70;;
75716;SDS011;64333;50.138;14.332;2022-11-13T14:06:52;88.45;;;29.20;;
75716;SDS011;64333;50.138;14.332;2022-11-13T14:09:20;84.10;;;29.23;;
75716;SDS011;64333;50.138;14.332;2022-11-13T14:11:54;85.28;;;30.20;;
75716;SDS011;64333;50.138;14.332;2022-11-13T14:14:24;86.63;;;30.92;;
75716;SDS011;64333;50.138;14.332;2022-11-13T14:16:51;76.97;;;29.08;;
75716;SDS011;64333;50.138;14.332;2022-11-13T14:19:17;98.10;;;31.52;;
75716;SDS011;64333;50.138;14.332;2022-11-13T14:21:43;105.05;;;29.30;;
75716;SDS011;64333;50.138;14.332;2022-11-13T14:24:22;99.95;;;28.70;;
75716;SDS011;64333;50.138;14.332;2022-11-13T14:27:07;123.82;;;31.00;;
75716;SDS011;64333;50.138;14.332;2022-11-13T14:29:44;98.75;;;32.47;;
75716;SDS011;64333;50.138;14.332;2022-11-13T14:32:13;72.28;;;29.77;;
75716;SDS011;64333;50.138;14.332;2022-11-13T14:34:45;79.30;;;29.77;;
75716;SDS011;64333;50.138;14.332;2022-11-13T14:37:19;86.13;;;31.77;;
75716;SDS011;64333;50.138;14.332;2022-11-13T14:39:47;82.68;;;32.55;;
75716;SDS011;64333;50.138;14.332;2022-11-13T14:42:21;80.85;;;29.73;;
75716;SDS011;64333;50.138;14.332;2022-11-13T14:44:50;92.80;;;30.65;;
75716;SDS011;64333;50.138;14.332;2022-11-13T14:47:25;94.95;;;31.52;;
75716;SDS011;64333;50.138;14.332;2022-11-13T14:49:53;92.30;;;31.30;;
75716;SDS011;64333;50.138;14.332;2022-11-13T14:52:23;75.15;;;28.58;;
75716;SDS011;64333;50.138;14.332;2022-11-13T14:55:00;79.47;;;29.58;;
75716;SDS011;64333;50.138;14.332;2022-11-13T14:57:28;82.68;;;29.58;;
75716;SDS011;64333;50.138;14.332;2022-11-13T14:59:53;86.90;;;30.60;;
75716;SDS011;64333;50.138;14.332;2022-11-13T15:02:19;88.78;;;32.67;;
75716;SDS011;64333;50.138;14.332;2022-11-13T15:04:44;80.60;;;32.03;;
75716;SDS011;64333;50.138;14.332;2022-11-13T15:09:56;95.57;;;29.98;;
75716;SDS011;64333;50.138;14.332;2022-11-13T15:12:22;87.25;;;33.15;;
75716;SDS011;64333;50.138;14.332;2022-11-13T15:14:47;106.13;;;33.72;;
75716;SDS011;64333;50.138;14.332;2022-11-13T15:17:14;117.90;;;32.90;;
75716;SDS011;64333;50.138;14.332;2022-11-13T15:19:43;80.05;;;32.65;;
75716;SDS011;64333;50.138;14.332;2022-11-13T15:22:10;132.57;;;35.65;;
75716;SDS011;64333;50.138;14.332;2022-11-13T15:24:36;157.57;;;37.88;;
75716;SDS011;64333;50.138;14.332;2022-11-13T15:27:02;190.95;;;39.83;;
75716;SDS011;64333;50.138;14.332;2022-11-13T15:29:27;171.18;;;40.72;;
75716;SDS011;64333;50.138;14.332;2022-11-13T15:31:53;158.18;;;36.92;;
75716;SDS011;64333;50.138;14.332;2022-11-13T15:34:18;158.10;;;40.25;;
75716;SDS011;64333;50.138;14.332;2022-11-13T15:36:44;123.55;;;36.00;;
75716;SDS011;64333;50.138;14.332;2022-11-13T15:39:10;200.90;;;42.83;;
75716;SDS011;64333;50.138;14.332;2022-11-13T15:41:36;155.20;;;41.80;;